createdAt,value
2018-03-26T00:02:23.760Z,99821.48
2018-03-26T00:04:51.518Z,99816.91
2018-03-26T00:07:19.391Z,99819.42
2018-03-26T00:09:47.051Z,99825.13
2018-03-26T00:12:14.918Z,99819.28
2018-03-26T00:14:42.683Z,99816.31
2018-03-26T00:17:10.550Z,99816.84
2018-03-26T00:19:38.267Z,99815.70
2018-03-26T00:22:06.078Z,99817.84
2018-03-26T00:24:33.848Z,99817.75
2018-03-26T00:27:01.708Z,99820.07
2018-03-26T00:29:29.432Z,99821.39
2018-03-26T00:31:57.238Z,99824.22
2018-03-26T00:34:25.002Z,99822.88
2018-03-26T00:36:52.767Z,99824.59
2018-03-26T00:39:20.534Z,99821.39
2018-03-26T00:41:48.288Z,99831.25
2018-03-26T00:44:16.033Z,99830.59
2018-03-26T00:46:43.836Z,99828.89
2018-03-26T00:49:11.553Z,99835.14
2018-03-26T00:51:39.455Z,99832.66
2018-03-26T00:54:07.219Z,99831.42
2018-03-26T00:56:35.088Z,99837.70
2018-03-26T00:59:02.849Z,99833.45
2018-03-26T01:01:30.673Z,99837.33
2018-03-26T01:03:58.587Z,99834.37
2018-03-26T01:06:26.438Z,99829.45
2018-03-26T01:08:54.318Z,99835.34
2018-03-26T01:11:22.189Z,99837.45
2018-03-26T01:13:49.907Z,99839.36
2018-03-26T01:16:17.603Z,99833.98
2018-03-26T01:18:45.376Z,99839.92
2018-03-26T01:21:13.141Z,99838.59
2018-03-26T01:23:40.849Z,99836.89
2018-03-26T01:26:08.670Z,99844.97
2018-03-26T01:28:36.386Z,99852.92
2018-03-26T01:31:04.205Z,99857.81
2018-03-26T01:33:32.066Z,99859.39
2018-03-26T01:35:59.780Z,99861.38
2018-03-26T01:38:27.594Z,99858.88
2018-03-26T01:40:55.461Z,99861.15
2018-03-26T01:43:23.331Z,99865.20
2018-03-26T01:45:51.095Z,99859.25
2018-03-26T01:48:18.965Z,99864.02
2018-03-26T01:50:46.779Z,99862.68
2018-03-26T01:53:14.650Z,99866.23
2018-03-26T01:55:42.564Z,99872.59
2018-03-26T01:58:10.426Z,99877.40
2018-03-26T02:00:38.158Z,99879.46
2018-03-26T02:03:05.912Z,99881.97
2018-03-26T02:05:33.719Z,99883.31
2018-03-26T02:08:01.598Z,99881.00
2018-03-26T02:10:29.350Z,99880.25
2018-03-26T02:12:57.217Z,99879.80
2018-03-26T02:15:24.943Z,99879.23
2018-03-26T02:17:52.686Z,99882.80
2018-03-26T02:20:20.511Z,99889.98
2018-03-26T02:22:48.377Z,99887.23
2018-03-26T02:25:16.111Z,99882.78
2018-03-26T02:27:43.807Z,99882.51
2018-03-26T02:30:11.673Z,99890.81
2018-03-26T02:32:39.537Z,99899.75
2018-03-26T02:35:07.254Z,99891.88
2018-03-26T02:37:35.377Z,99897.81
2018-03-26T02:40:03.035Z,99899.83
2018-03-26T02:42:30.800Z,99901.13
2018-03-26T02:44:58.525Z,99901.77
2018-03-26T02:47:26.329Z,99908.38
2018-03-26T02:49:54.060Z,99914.93
2018-03-26T02:52:21.817Z,99918.85
2018-03-26T02:54:49.599Z,99915.53
2018-03-26T02:57:17.353Z,99917.36
2018-03-26T02:59:45.151Z,99919.08
2018-03-26T03:02:13.026Z,99923.95
2018-03-26T03:04:40.782Z,99928.03
2018-03-26T03:07:08.557Z,99929.02
2018-03-26T03:09:36.206Z,99934.05
2018-03-26T03:12:04.025Z,99931.38
2018-03-26T03:14:31.851Z,99926.15
2018-03-26T03:16:59.706Z,99937.27
2018-03-26T03:19:27.573Z,99937.77
2018-03-26T03:21:55.440Z,99939.19
2018-03-26T03:24:23.204Z,99936.82
2018-03-26T03:26:51.022Z,99942.09
2018-03-26T03:29:18.838Z,99929.44
2018-03-26T03:31:46.703Z,99941.68
2018-03-26T03:34:14.366Z,99937.35
2018-03-26T03:36:42.128Z,99942.73
2018-03-26T03:39:09.858Z,99952.39
2018-03-26T03:41:37.600Z,99950.20
2018-03-26T03:44:05.387Z,99952.02
2018-03-26T03:46:33.129Z,99958.98
2018-03-26T03:49:01.053Z,99948.98
2018-03-26T03:51:28.715Z,99955.69
2018-03-26T03:53:56.582Z,99948.47
2018-03-26T03:56:24.300Z,99961.48
2018-03-26T03:58:52.040Z,99954.00
2018-03-26T04:01:19.786Z,99962.20
2018-03-26T04:03:47.536Z,99964.30
2018-03-26T04:06:15.306Z,99959.05
2018-03-26T04:08:43.228Z,99964.45
2018-03-26T04:11:11.035Z,99968.92
2018-03-26T04:13:38.907Z,99956.74
2018-03-26T04:16:06.633Z,99972.05
2018-03-26T04:18:34.433Z,99961.89
2018-03-26T04:21:02.196Z,99964.17
2018-03-26T04:23:30.034Z,99965.70
2018-03-26T04:25:57.767Z,99966.39
2018-03-26T04:28:25.592Z,99969.00
2018-03-26T04:30:53.336Z,99968.09
2018-03-26T04:33:21.118Z,99975.02
2018-03-26T04:35:48.884Z,99976.20
2018-03-26T04:38:16.853Z,99972.17
2018-03-26T04:40:44.568Z,99977.13
2018-03-26T04:43:12.382Z,99979.72
2018-03-26T04:45:40.147Z,99974.17
2018-03-26T04:48:08.014Z,99971.45
2018-03-26T04:50:35.740Z,99980.20
2018-03-26T04:53:03.543Z,99977.42
2018-03-26T04:55:31.307Z,99982.24
2018-03-26T04:57:59.073Z,99985.05
2018-03-26T05:00:26.799Z,99980.70
2018-03-26T05:02:54.539Z,99980.48
2018-03-26T05:05:22.365Z,99977.05
2018-03-26T05:07:50.199Z,99983.22
2018-03-26T05:10:17.996Z,99978.53
2018-03-26T05:12:45.761Z,99987.91
2018-03-26T05:15:13.526Z,99992.27
2018-03-26T05:17:41.391Z,99987.72
2018-03-26T05:20:09.161Z,99989.81
2018-03-26T05:22:37.022Z,99985.62
2018-03-26T05:25:04.841Z,99990.30
2018-03-26T05:27:32.654Z,99988.84
2018-03-26T05:30:00.484Z,99992.61
2018-03-26T05:32:28.237Z,99996.25
2018-03-26T05:34:55.910Z,99995.69
2018-03-26T05:37:23.711Z,100004.52
2018-03-26T05:39:51.579Z,100005.63
2018-03-26T05:42:19.444Z,100003.52
2018-03-26T05:44:47.166Z,100008.16
2018-03-26T05:47:14.863Z,100015.16
2018-03-26T05:49:42.635Z,100021.69
2018-03-26T05:52:10.504Z,100028.34
2018-03-26T05:54:38.360Z,100028.83
2018-03-26T05:57:06.145Z,100027.56
2018-03-26T05:59:34.002Z,100026.02
2018-03-26T06:02:01.767Z,100037.80
2018-03-26T06:04:29.633Z,100036.46
2018-03-26T06:06:57.292Z,100043.31
2018-03-26T06:09:25.161Z,100046.37
2018-03-26T06:11:52.928Z,100046.99
2018-03-26T06:14:20.792Z,100040.87
2018-03-26T06:17:00.435Z,100040.17
2018-03-26T06:19:28.235Z,100051.17
2018-03-26T06:21:55.974Z,100060.20
2018-03-26T06:24:23.829Z,100054.04
2018-03-26T06:26:51.698Z,100053.80
2018-03-26T06:29:19.539Z,100051.59
2018-03-26T06:31:47.283Z,100057.87
2018-03-26T06:34:15.196Z,100054.65
2018-03-26T06:39:49.300Z,100059.66
2018-03-26T06:42:17.093Z,100066.52
2018-03-26T06:44:44.961Z,100059.41
2018-03-26T06:47:12.790Z,100071.20
2018-03-26T06:49:40.552Z,100067.71
2018-03-26T06:52:08.255Z,100077.13
2018-03-26T06:54:36.123Z,100072.78
2018-03-26T06:57:03.896Z,100078.25
2018-03-26T06:59:31.871Z,100073.82
2018-03-26T07:01:59.618Z,100083.36
2018-03-26T07:04:27.563Z,100085.70
2018-03-26T07:06:55.320Z,100091.98
2018-03-26T07:09:23.162Z,100092.16
2018-03-26T07:11:50.880Z,100100.23
2018-03-26T07:14:18.748Z,100102.30
2018-03-26T07:16:46.464Z,100101.08
2018-03-26T07:19:14.224Z,100101.74
2018-03-26T07:21:42.069Z,100106.16
2018-03-26T07:24:09.808Z,100114.66
2018-03-26T07:26:37.569Z,100118.05
2018-03-26T07:29:05.436Z,100125.38
2018-03-26T07:31:33.157Z,100119.23
2018-03-26T07:34:00.965Z,100120.86
2018-03-26T07:36:28.730Z,100116.46
2018-03-26T07:38:56.459Z,100114.56
2018-03-26T07:41:24.159Z,100122.27
2018-03-26T07:43:52.126Z,100125.70
2018-03-26T07:46:19.800Z,100130.88
2018-03-26T07:48:47.657Z,100136.30
2018-03-26T07:51:15.614Z,100137.18
2018-03-26T07:53:43.355Z,100137.02
2018-03-26T07:56:11.154Z,100136.54
2018-03-26T07:58:39.019Z,100136.77
2018-03-26T08:01:06.728Z,100138.52
2018-03-26T08:03:34.651Z,100140.94
2018-03-26T08:06:02.363Z,100143.94
2018-03-26T08:08:30.184Z,100155.13
2018-03-26T08:10:57.944Z,100156.45
2018-03-26T08:13:25.809Z,100160.89
2018-03-26T08:15:53.575Z,100162.30
2018-03-26T08:18:21.442Z,100169.14
2018-03-26T08:20:49.209Z,100162.48
2018-03-26T08:23:17.073Z,100165.56
2018-03-26T08:25:44.793Z,100169.23
2018-03-26T08:28:12.602Z,100174.27
2018-03-26T08:30:40.560Z,100173.82
2018-03-26T08:33:08.394Z,100180.45
2018-03-26T08:35:36.202Z,100180.77
2018-03-26T08:38:03.974Z,100194.89
2018-03-26T08:40:31.699Z,100195.44
2018-03-26T08:42:59.458Z,100193.00
2018-03-26T08:45:27.261Z,100199.96
2018-03-26T08:47:54.967Z,100203.66
2018-03-26T08:50:22.921Z,100203.37
2018-03-26T08:52:50.759Z,100205.69
2018-03-26T08:55:18.696Z,100212.30
2018-03-26T08:57:46.500Z,100219.21
2018-03-26T09:00:14.448Z,100211.23
2018-03-26T09:02:42.329Z,100226.08
2018-03-26T09:05:10.255Z,100223.58
2018-03-26T09:07:38.062Z,100223.48
2018-03-26T09:10:05.929Z,100229.39
2018-03-26T09:12:33.654Z,100239.06
2018-03-26T09:15:01.405Z,100237.80
2018-03-26T09:17:29.229Z,100243.08
2018-03-26T09:19:57.192Z,100249.48
2018-03-26T09:22:24.957Z,100243.30
2018-03-26T09:24:52.723Z,100243.66
2018-03-26T09:27:20.459Z,100252.36
2018-03-26T09:29:48.198Z,100256.94
2018-03-26T09:32:16.023Z,100249.63
2018-03-26T09:34:43.836Z,100248.83
2018-03-26T09:37:11.642Z,100251.02
2018-03-26T09:39:39.375Z,100250.40
2018-03-26T09:42:07.189Z,100249.89
2018-03-26T09:44:34.997Z,100260.44
2018-03-26T09:47:02.809Z,100255.84
2018-03-26T09:49:30.670Z,100260.63
2018-03-26T09:51:58.400Z,100257.36
2018-03-26T09:54:26.164Z,100270.45
2018-03-26T09:56:53.969Z,100270.48
2018-03-26T09:59:21.831Z,100272.38
2018-03-26T10:01:55.190Z,100274.59
2018-03-26T10:04:22.991Z,100274.12
2018-03-26T10:06:50.759Z,100281.74
2018-03-26T10:09:18.628Z,100284.79
2018-03-26T10:11:46.330Z,100281.14
2018-03-26T10:14:14.152Z,100283.67
2018-03-26T10:16:41.918Z,100279.80
2018-03-26T10:19:09.649Z,100279.27
2018-03-26T10:21:37.456Z,100286.34
2018-03-26T10:24:05.291Z,100284.13
2018-03-26T10:26:33.027Z,100279.62
2018-03-26T10:29:00.794Z,100289.73
2018-03-26T10:31:28.605Z,100283.25
2018-03-26T10:33:56.472Z,100276.58
2018-03-26T10:36:24.201Z,100271.86
2018-03-26T10:38:52.001Z,100278.63
2018-03-26T10:41:19.764Z,100280.22
2018-03-26T10:43:47.636Z,100277.50
2018-03-26T10:46:15.500Z,100281.77
2018-03-26T10:48:43.366Z,100276.85
2018-03-26T10:51:11.092Z,100275.86
2018-03-26T10:53:38.899Z,100275.70
2018-03-26T10:56:06.726Z,100278.37
2018-03-26T10:58:34.464Z,100276.85
2018-03-26T11:01:02.187Z,100270.58
2018-03-26T11:03:30.067Z,100274.82
2018-03-26T11:05:57.824Z,100276.41
2018-03-26T11:08:25.565Z,100274.98
2018-03-26T11:10:53.349Z,100276.03
2018-03-26T11:13:21.093Z,100279.88
2018-03-26T11:15:48.834Z,100275.23
2018-03-26T11:18:16.641Z,100271.50
2018-03-26T11:20:44.507Z,100274.30
2018-03-26T11:23:12.235Z,100279.54
2018-03-26T11:25:40.038Z,100271.72
2018-03-26T11:28:07.903Z,100271.78
2018-03-26T11:30:35.711Z,100271.84
2018-03-26T11:33:03.431Z,100276.08
2018-03-26T11:35:31.197Z,100273.72
2018-03-26T11:37:58.969Z,100274.59
2018-03-26T11:40:26.830Z,100273.12
2018-03-26T11:42:54.592Z,100269.84
2018-03-26T11:45:22.459Z,100272.84
2018-03-26T11:47:50.179Z,100272.09
2018-03-26T11:50:17.881Z,100270.67
2018-03-26T11:52:45.610Z,100273.94
2018-03-26T11:55:13.359Z,100274.84
2018-03-26T11:57:41.068Z,100271.55
2018-03-26T12:00:08.841Z,100266.86
2018-03-26T12:02:36.609Z,100264.37
2018-03-26T12:05:04.474Z,100267.58
2018-03-26T12:07:32.193Z,100266.73
2018-03-26T12:10:00.001Z,100271.47
2018-03-26T12:12:27.779Z,100268.62
2018-03-26T12:14:55.539Z,100271.41
2018-03-26T12:17:23.294Z,100274.77
2018-03-26T12:22:55.079Z,100265.62
2018-03-26T12:25:23.056Z,100261.66
2018-03-26T12:30:56.665Z,100260.42
2018-03-26T12:33:24.390Z,100254.40
2018-03-26T12:35:59.888Z,100247.58
2018-03-26T12:38:27.530Z,100248.30
2018-03-26T12:40:58.117Z,100247.11
2018-03-26T12:43:25.886Z,100243.13
2018-03-26T12:46:05.472Z,100246.25
2018-03-26T12:48:33.236Z,100242.84
2018-03-26T12:51:13.095Z,100239.55
2018-03-26T12:53:40.881Z,100247.45
2018-03-26T12:56:08.718Z,100247.63
2018-03-26T12:58:45.079Z,100249.22
2018-03-26T13:01:24.836Z,100241.81
2018-03-26T13:03:52.489Z,100241.84
2018-03-26T13:06:20.306Z,100240.98
2018-03-26T13:08:48.120Z,100239.87
2018-03-26T13:11:15.986Z,100239.33
2018-03-26T13:13:43.728Z,100233.32
2018-03-26T13:16:11.515Z,100238.30
2018-03-26T13:18:39.280Z,100224.84
2018-03-26T13:21:07.147Z,100235.12
2018-03-26T13:23:34.911Z,100234.76
2018-03-26T13:26:02.779Z,100230.90
2018-03-26T13:28:30.507Z,100219.64
2018-03-26T13:30:58.254Z,100225.09
2018-03-26T13:33:26.071Z,100231.38
2018-03-26T13:35:53.939Z,100225.64
2018-03-26T13:38:21.655Z,100214.03
2018-03-26T13:40:49.472Z,100228.80
2018-03-26T13:43:17.231Z,100225.02
2018-03-26T13:45:45.082Z,100225.54
2018-03-26T13:48:12.864Z,100228.92
2018-03-26T13:50:40.730Z,100227.27
2018-03-26T13:53:08.384Z,100238.17
2018-03-26T13:55:36.112Z,100231.52
2018-03-26T13:58:03.921Z,100230.11
2018-03-26T14:00:31.788Z,100225.89
2018-03-26T14:02:59.552Z,100230.86
2018-03-26T14:05:27.419Z,100235.52
2018-03-26T14:07:55.151Z,100237.13
2018-03-26T14:10:34.620Z,100234.31
2018-03-26T14:13:14.307Z,100232.77
2018-03-26T14:15:53.813Z,100232.34
2018-03-26T14:18:21.575Z,100227.71
2018-03-26T14:20:49.329Z,100236.11
2018-03-26T14:23:17.093Z,100232.87
2018-03-26T14:25:45.078Z,100230.08
2018-03-26T14:28:12.783Z,100232.02
2018-03-26T14:30:40.553Z,100225.20
2018-03-26T14:33:08.359Z,100224.60
2018-03-26T14:35:43.781Z,100232.08
2018-03-26T14:38:11.569Z,100238.11
2018-03-26T14:40:39.436Z,100236.52
2018-03-26T14:43:07.211Z,100240.81
2018-03-26T14:45:35.169Z,100238.94
2018-03-26T14:48:03.038Z,100241.83
2018-03-26T14:50:30.800Z,100242.94
2018-03-26T14:52:58.623Z,100246.30
2018-03-26T14:55:26.436Z,100250.65
2018-03-26T14:57:54.298Z,100254.63
2018-03-26T15:00:22.062Z,100260.98
2018-03-26T15:02:50.057Z,100260.05
2018-03-26T15:05:17.810Z,100256.58
2018-03-26T15:07:45.632Z,100260.34
2018-03-26T15:10:13.387Z,100259.88
2018-03-26T15:12:41.089Z,100261.45
2018-03-26T15:15:08.854Z,100260.59
2018-03-26T15:17:36.690Z,100259.39
2018-03-26T15:20:04.490Z,100266.12
2018-03-26T15:22:32.354Z,100261.61
2018-03-26T15:25:00.117Z,100260.23
2018-03-26T15:27:28.036Z,100255.57
2018-03-26T15:29:55.748Z,100259.66
2018-03-26T15:32:23.629Z,100257.82
2018-03-26T15:34:51.392Z,100254.91
2018-03-26T15:37:19.348Z,100251.56
2018-03-26T15:39:47.067Z,100252.98
2018-03-26T15:42:14.776Z,100261.20
2018-03-26T15:44:42.540Z,100261.20
2018-03-26T15:47:10.407Z,100262.13
2018-03-26T15:49:38.278Z,100264.16
2018-03-26T15:52:06.139Z,100263.78
2018-03-26T15:54:33.911Z,100267.33
2018-03-26T15:57:01.745Z,100273.53
2018-03-26T15:59:29.536Z,100274.02
2018-03-26T16:01:56.787Z,100268.33
2018-03-26T16:04:24.552Z,100271.52
2018-03-26T16:06:52.420Z,100257.05
2018-03-26T16:09:20.146Z,100267.36
2018-03-26T16:11:47.946Z,100279.17
2018-03-26T16:14:15.685Z,100270.40
2018-03-26T16:16:43.478Z,100269.93
2018-03-26T16:19:11.242Z,100277.64
2018-03-26T16:21:39.107Z,100284.87
2018-03-26T16:24:06.823Z,100281.16
2018-03-26T16:26:34.634Z,100285.09
2018-03-26T16:29:02.416Z,100289.89
2018-03-26T16:31:30.267Z,100299.17
2018-03-26T16:33:57.944Z,100296.09
2018-03-26T16:36:25.801Z,100305.78
2018-03-26T16:38:53.458Z,100309.89
2018-03-26T16:41:33.307Z,100312.14
2018-03-26T16:44:01.073Z,100308.64
2018-03-26T16:46:28.938Z,100308.88
2018-03-26T16:48:56.708Z,100311.58
2018-03-26T16:51:24.368Z,100314.38
2018-03-26T16:53:52.127Z,100312.66
2018-03-26T16:56:19.894Z,100316.39
2018-03-26T16:58:47.760Z,100319.83
2018-03-26T17:01:15.497Z,100325.59
2018-03-26T17:03:43.359Z,100330.23
2018-03-26T17:06:11.157Z,100329.22
2018-03-26T17:08:39.024Z,100329.91
2018-03-26T17:11:06.716Z,100336.84
2018-03-26T17:13:34.556Z,100339.41
2018-03-26T17:16:02.316Z,100346.05
2018-03-26T17:18:30.190Z,100348.64
2018-03-26T17:20:57.947Z,100346.09
2018-03-26T17:23:25.815Z,100346.59
2018-03-26T17:25:53.530Z,100346.16
2018-03-26T17:28:21.283Z,100339.38
2018-03-26T17:30:49.109Z,100346.53
2018-03-26T17:33:17.011Z,100346.53
2018-03-26T17:35:44.943Z,100345.84
2018-03-26T17:38:12.816Z,100347.75
2018-03-26T17:40:40.577Z,100347.73
2018-03-26T17:43:08.243Z,100349.71
2018-03-26T17:45:35.959Z,100347.54
2018-03-26T17:48:03.973Z,100343.48
2018-03-26T17:50:31.738Z,100348.30
2018-03-26T17:52:59.690Z,100345.20
2018-03-26T17:55:27.471Z,100348.12
2018-03-26T17:57:55.335Z,100346.52
2018-03-26T18:00:23.045Z,100342.98
2018-03-26T18:02:50.901Z,100344.62
2018-03-26T18:05:18.629Z,100346.39
2018-03-26T18:07:46.458Z,100347.97
2018-03-26T18:10:14.161Z,100354.98
2018-03-26T18:12:42.023Z,100355.16
2018-03-26T18:15:09.736Z,100350.30
2018-03-26T18:17:37.513Z,100352.81
2018-03-26T18:20:05.393Z,100354.09
2018-03-26T18:22:33.189Z,100363.00
2018-03-26T18:25:00.903Z,100362.17
2018-03-26T18:27:28.713Z,100360.75
2018-03-26T18:29:56.375Z,100360.97
2018-03-26T18:32:24.139Z,100365.19
2018-03-26T18:34:51.868Z,100363.91
2018-03-26T18:37:19.612Z,100367.77
2018-03-26T18:39:47.331Z,100369.73
2018-03-26T18:42:15.094Z,100365.24
2018-03-26T18:44:42.961Z,100365.64
2018-03-26T18:47:10.726Z,100370.98
2018-03-26T18:49:38.696Z,100372.34
2018-03-26T18:52:06.410Z,100376.94
2018-03-26T18:54:34.224Z,100369.12
2018-03-26T18:57:02.002Z,100367.81
2018-03-26T18:59:29.856Z,100367.70
2018-03-26T19:01:57.620Z,100365.81
2018-03-26T19:04:25.487Z,100375.30
2018-03-26T19:06:53.144Z,100372.30
2018-03-26T19:09:20.812Z,100375.53
2018-03-26T19:11:48.468Z,100380.97
2018-03-26T19:14:16.236Z,100382.47
2018-03-26T19:16:43.973Z,100385.77
2018-03-26T19:19:11.766Z,100386.39
2018-03-26T19:21:39.530Z,100394.89
2018-03-26T19:24:07.298Z,100395.98
2018-03-26T19:26:35.058Z,100393.67
2018-03-26T19:29:02.788Z,100400.66
2018-03-26T19:31:30.553Z,100402.83
2018-03-26T19:33:58.264Z,100407.20
2018-03-26T19:36:25.917Z,100406.98
2018-03-26T19:38:53.747Z,100400.31
2018-03-26T19:41:21.544Z,100410.11
2018-03-26T19:43:49.255Z,100396.94
2018-03-26T19:46:16.971Z,100399.97
2018-03-26T19:48:44.814Z,100411.94
2018-03-26T19:51:12.679Z,100410.23
2018-03-26T19:53:40.468Z,100409.18
2018-03-26T19:56:08.184Z,100413.05
2018-03-26T19:58:35.997Z,100413.80
2018-03-26T20:01:03.762Z,100424.13
2018-03-26T20:03:31.628Z,100416.66
2018-03-26T20:05:59.355Z,100416.91
2018-03-26T20:08:27.161Z,100421.45
2018-03-26T20:10:54.860Z,100425.21
2018-03-26T20:13:22.682Z,100420.30
2018-03-26T20:15:50.444Z,100423.13
2018-03-26T20:18:18.111Z,100411.20
2018-03-26T20:20:45.987Z,100421.16
2018-03-26T20:23:13.888Z,100420.88
2018-03-26T20:25:41.717Z,100416.09
2018-03-26T20:28:09.587Z,100422.28
2018-03-26T20:30:37.345Z,100419.25
2018-03-26T20:33:05.211Z,100412.84
2018-03-26T20:35:32.976Z,100412.20
2018-03-26T20:38:00.817Z,100416.91
2018-03-26T20:40:28.662Z,100421.38
2018-03-26T20:42:56.368Z,100416.95
2018-03-26T20:45:24.134Z,100418.66
2018-03-26T20:47:51.962Z,100420.61
2018-03-26T20:50:19.775Z,100420.13
2018-03-26T20:52:47.437Z,100429.63
2018-03-26T20:55:15.295Z,100426.52
2018-03-26T20:57:42.999Z,100424.30
2018-03-26T21:00:10.825Z,100429.34
2018-03-26T21:02:38.533Z,100437.69
2018-03-26T21:05:06.354Z,100430.42
2018-03-26T21:07:34.122Z,100430.00
2018-03-26T21:10:01.932Z,100434.98
2018-03-26T21:12:29.714Z,100439.73
2018-03-26T21:14:57.509Z,100438.28
2018-03-26T21:17:25.283Z,100441.75
2018-03-26T21:19:53.041Z,100440.25
2018-03-26T21:22:20.704Z,100439.19
2018-03-26T21:24:48.530Z,100440.94
2018-03-26T21:27:16.335Z,100446.20
2018-03-26T21:29:44.168Z,100442.88
2018-03-26T21:32:11.953Z,100433.90
2018-03-26T21:34:39.772Z,100435.78
2018-03-26T21:37:07.598Z,100434.22
2018-03-26T21:39:35.363Z,100431.30
2018-03-26T21:42:03.023Z,100434.03
2018-03-26T21:44:30.890Z,100436.84
2018-03-26T21:46:58.662Z,100438.09
2018-03-26T21:49:26.420Z,100434.23
2018-03-26T21:51:54.136Z,100436.97
2018-03-26T21:54:21.910Z,100435.61
2018-03-26T21:56:49.713Z,100434.78
2018-03-26T21:59:17.476Z,100430.08
2018-03-26T22:01:45.248Z,100432.08
2018-03-26T22:04:13.008Z,100432.12
2018-03-26T22:06:40.874Z,100431.09
2018-03-26T22:09:08.944Z,100429.05
2018-03-26T22:11:36.709Z,100429.77
2018-03-26T22:14:04.364Z,100422.73
2018-03-26T22:16:32.128Z,100431.88
2018-03-26T22:18:59.843Z,100430.20
2018-03-26T22:21:27.659Z,100430.62
2018-03-26T22:23:55.429Z,100431.23
2018-03-26T22:26:23.141Z,100424.73
2018-03-26T22:28:51.066Z,100420.61
2018-03-26T22:31:18.825Z,100428.55
2018-03-26T22:33:46.588Z,100431.80
2018-03-26T22:36:14.308Z,100425.27
2018-03-26T22:38:42.118Z,100427.61
2018-03-26T22:41:09.881Z,100432.19
2018-03-26T22:43:37.836Z,100432.19
2018-03-26T22:46:05.616Z,100428.42
2018-03-26T22:48:33.380Z,100432.83
2018-03-26T22:51:01.145Z,100431.14
2018-03-26T22:53:29.012Z,100435.21
2018-03-26T22:55:56.713Z,100429.63
2018-03-26T22:58:24.544Z,100435.56
2018-03-26T23:00:52.310Z,100436.12
2018-03-26T23:03:20.037Z,100432.17
2018-03-26T23:05:47.829Z,100446.12
2018-03-26T23:08:15.497Z,100433.47
2018-03-26T23:10:43.219Z,100437.00
2018-03-26T23:13:11.026Z,100434.66
2018-03-26T23:15:38.891Z,100433.39
2018-03-26T23:18:06.544Z,100436.52
2018-03-26T23:20:34.208Z,100430.05
2018-03-26T23:23:01.877Z,100431.92
2018-03-26T23:25:29.742Z,100433.05
2018-03-26T23:27:57.579Z,100435.98
2018-03-26T23:30:25.275Z,100430.13
2018-03-26T23:32:52.985Z,100431.52
2018-03-26T23:35:20.700Z,100427.79
2018-03-26T23:37:48.568Z,100423.60
2018-03-26T23:40:16.284Z,100420.74
2018-03-26T23:42:43.992Z,100429.19
2018-03-26T23:45:11.717Z,100427.14
2018-03-26T23:47:39.526Z,100428.89
2018-03-26T23:50:07.390Z,100428.13
2018-03-26T23:52:35.103Z,100433.95
2018-03-26T23:55:02.920Z,100427.44
2018-03-26T23:57:30.682Z,100426.06
2018-03-26T23:59:58.448Z,100424.84
